createdAt,value
2022-08-02T00:00:37.044Z,62.19
2022-08-02T00:03:06.728Z,61.65
2022-08-02T00:05:33.553Z,61.29
2022-08-02T00:08:00.529Z,61.06
2022-08-02T00:10:28.025Z,60.86
2022-08-02T00:12:55.199Z,60.78
2022-08-02T00:15:22.448Z,60.84
2022-08-02T00:17:49.352Z,60.85
2022-08-02T00:20:16.615Z,60.75
2022-08-02T00:22:43.648Z,60.62
2022-08-02T00:25:13.897Z,60.92
2022-08-02T00:27:40.755Z,61.24
2022-08-02T00:30:08.120Z,61.35
2022-08-02T00:32:34.924Z,60.87
2022-08-02T00:35:01.797Z,60.78
2022-08-02T00:37:30.571Z,61.13
2022-08-02T00:39:57.589Z,61.39
2022-08-02T00:42:24.556Z,62.38
2022-08-02T00:44:51.392Z,62.13
2022-08-02T00:47:19.558Z,62.62
2022-08-02T00:49:47.106Z,63.17
2022-08-02T00:52:14.259Z,64.46
2022-08-02T00:54:41.481Z,65.51
2022-08-02T00:57:08.458Z,66.34
2022-08-02T00:59:35.288Z,67.19
2022-08-02T01:02:02.216Z,68.23
2022-08-02T01:04:31.415Z,69.52
2022-08-02T01:07:12.888Z,70.36
2022-08-02T01:09:45.361Z,70.83
2022-08-02T01:12:13.526Z,71.74
2022-08-02T01:14:51.524Z,72.15
2022-08-02T01:17:32.551Z,73.08
2022-08-02T01:20:23.395Z,73.49
2022-08-02T01:23:15.555Z,74.53
2022-08-02T01:25:48.217Z,74.76
2022-08-02T01:28:33.589Z,74.72
2022-08-02T01:31:21.446Z,75.82
2022-08-02T01:33:56.962Z,76.49
2022-08-02T01:36:27.434Z,76.79
2022-08-02T01:38:56.412Z,77.80
2022-08-02T01:41:28.185Z,78.15
2022-08-02T01:43:59.452Z,78.62
2022-08-02T01:46:29.265Z,79.41
2022-08-02T01:48:59.921Z,79.80
2022-08-02T01:51:46.892Z,79.68
2022-08-02T01:54:17.652Z,80.54
2022-08-02T01:56:46.595Z,80.70
2022-08-02T01:59:18.851Z,80.39
2022-08-02T02:01:49.256Z,80.69
2022-08-02T02:04:17.371Z,80.65
2022-08-02T02:06:45.479Z,81.57
2022-08-02T02:09:16.160Z,81.51
2022-08-02T02:12:11.451Z,81.66
2022-08-02T02:14:35.315Z,81.48
2022-08-02T02:17:03.370Z,81.72
2022-08-02T02:19:33.404Z,81.84
2022-08-02T02:22:00.343Z,82.16
2022-08-02T02:24:28.581Z,82.02
2022-08-02T02:26:55.966Z,82.45
2022-08-02T02:29:27.761Z,82.09
2022-08-02T02:31:56.124Z,82.32
2022-08-02T02:34:30.146Z,81.89
2022-08-02T02:37:00.571Z,80.70
2022-08-02T02:39:28.885Z,78.55
2022-08-02T02:41:59.633Z,77.05
2022-08-02T02:44:27.174Z,75.62
2022-08-02T02:46:55.492Z,74.71
2022-08-02T02:49:23.773Z,73.96
2022-08-02T02:51:52.402Z,72.59
2022-08-02T02:54:32.728Z,71.99
2022-08-02T02:57:03.065Z,71.42
2022-08-02T02:59:30.944Z,70.64
2022-08-02T03:01:58.900Z,70.47
2022-08-02T03:04:55.840Z,70.63
2022-08-02T03:07:15.937Z,70.71
2022-08-02T03:09:42.951Z,69.95
2022-08-02T03:12:11.087Z,70.06
2022-08-02T03:14:44.502Z,69.37
2022-08-02T03:17:16.669Z,68.75
2022-08-02T03:19:43.587Z,68.78
2022-08-02T03:22:11.727Z,68.37
2022-08-02T03:24:38.954Z,68.16
2022-08-02T03:27:05.803Z,68.51
2022-08-02T03:29:34.585Z,68.30
2022-08-02T03:32:02.037Z,68.59
2022-08-02T03:34:29.507Z,68.33
2022-08-02T03:36:58.226Z,68.24
2022-08-02T03:39:26.567Z,68.48
2022-08-02T03:41:55.524Z,67.99
2022-08-02T03:44:24.338Z,68.43
2022-08-02T03:46:53.128Z,68.26
2022-08-02T03:49:21.163Z,68.21
2022-08-02T03:51:48.248Z,67.56
2022-08-02T03:54:17.405Z,67.37
2022-08-02T03:56:44.380Z,67.13
2022-08-02T03:59:14.899Z,66.89
2022-08-02T04:01:42.243Z,66.55
2022-08-02T04:04:09.594Z,66.12
2022-08-02T04:06:39.858Z,65.71
2022-08-02T04:09:08.277Z,65.80
2022-08-02T04:11:35.125Z,65.63
2022-08-02T04:14:05.523Z,65.98
2022-08-02T04:16:42.509Z,65.56
2022-08-02T04:19:33.691Z,65.81
2022-08-02T04:22:04.981Z,65.52
2022-08-02T04:24:39.737Z,65.05
2022-08-02T04:27:48.870Z,65.21
2022-08-02T04:29:56.205Z,65.15
2022-08-02T04:32:24.101Z,65.16
2022-08-02T04:35:17.612Z,64.63
2022-08-02T04:37:39.440Z,63.44
2022-08-02T04:40:26.401Z,63.53
2022-08-02T04:42:54.122Z,64.08
2022-08-02T04:45:22.196Z,63.97
2022-08-02T04:48:02.342Z,63.74
2022-08-02T04:50:30.785Z,63.25
2022-08-02T04:52:57.708Z,63.35
2022-08-02T04:55:28.779Z,61.85
2022-08-02T04:57:57.712Z,60.91
2022-08-02T05:00:26.455Z,60.17
2022-08-02T05:02:54.179Z,59.88
2022-08-02T05:05:21.174Z,60.59
2022-08-02T05:07:48.272Z,59.79
2022-08-02T05:10:15.375Z,59.82
2022-08-02T05:12:42.444Z,59.22
2022-08-02T05:15:12.900Z,59.45
2022-08-02T05:17:48.043Z,59.95
2022-08-02T05:20:19.243Z,59.86
2022-08-02T05:22:46.968Z,59.22
2022-08-02T05:25:13.989Z,59.56
2022-08-02T05:27:41.020Z,58.86
2022-08-02T05:30:08.324Z,59.24
2022-08-02T05:32:35.936Z,58.94
2022-08-02T05:35:03.921Z,57.53
2022-08-02T05:37:33.028Z,57.65
2022-08-02T05:40:01.077Z,56.94
2022-08-02T05:42:32.409Z,57.25
2022-08-02T05:45:00.015Z,57.77
2022-08-02T05:47:26.986Z,57.47
2022-08-02T05:49:54.018Z,57.76
2022-08-02T05:52:24.685Z,57.04
2022-08-02T05:55:00.331Z,57.80
2022-08-02T05:57:54.698Z,57.63
2022-08-02T06:00:22.423Z,57.39
2022-08-02T06:03:31.556Z,57.28
2022-08-02T06:06:08.002Z,57.30
2022-08-02T06:08:48.122Z,55.89
2022-08-02T06:11:21.044Z,55.47
2022-08-02T06:13:48.087Z,55.73
2022-08-02T06:16:15.218Z,55.87
2022-08-02T06:18:43.521Z,54.61
2022-08-02T06:22:29.966Z,54.52
2022-08-02T06:23:59.512Z,53.79
2022-08-02T06:26:29.901Z,53.88
2022-08-02T06:28:58.205Z,53.79
2022-08-02T06:31:25.658Z,53.11
2022-08-02T06:33:53.004Z,54.08
2022-08-02T06:36:38.593Z,54.16
2022-08-02T06:39:19.902Z,54.98
2022-08-02T06:41:49.539Z,54.96
2022-08-02T06:47:11.923Z,55.56
2022-08-02T06:49:52.181Z,52.99
2022-08-02T06:52:28.818Z,54.24
2022-08-02T06:55:00.532Z,55.03
2022-08-02T06:57:29.810Z,54.49
2022-08-02T06:59:58.350Z,53.83
2022-08-02T07:02:25.308Z,54.00
2022-08-02T07:04:52.233Z,51.36
2022-08-02T07:07:19.114Z,50.38
2022-08-02T07:09:56.432Z,50.83
2022-08-02T07:12:28.981Z,51.82
2022-08-02T07:14:55.875Z,51.13
2022-08-02T07:17:22.691Z,51.00
2022-08-02T07:19:49.628Z,50.75
2022-08-02T07:22:18.722Z,50.78
2022-08-02T07:24:45.709Z,49.39
2022-08-02T07:27:13.312Z,47.86
2022-08-02T07:29:46.340Z,48.53
2022-08-02T07:32:18.820Z,48.65
2022-08-02T07:34:51.085Z,48.23
2022-08-02T07:37:35.727Z,48.00
2022-08-02T07:40:13.930Z,48.25
2022-08-02T07:42:43.565Z,47.02
2022-08-02T07:45:12.056Z,46.58
2022-08-02T07:47:42.672Z,46.12
2022-08-02T07:50:10.419Z,45.93
2022-08-02T07:52:37.498Z,45.79
2022-08-02T07:55:05.414Z,46.16
2022-08-02T07:57:33.056Z,46.29
2022-08-02T08:00:00.151Z,45.25
2022-08-02T08:02:27.249Z,43.86
2022-08-02T08:04:54.129Z,43.68
2022-08-02T08:07:21.268Z,43.93
2022-08-02T08:09:50.921Z,45.19
2022-08-02T08:12:23.409Z,45.51
2022-08-02T08:14:50.281Z,46.09
2022-08-02T08:17:17.450Z,46.78
2022-08-02T08:19:51.400Z,46.88
2022-08-02T08:22:22.612Z,46.04
2022-08-02T08:24:50.322Z,45.47
2022-08-02T08:27:18.502Z,45.22
2022-08-02T08:29:46.230Z,44.63
2022-08-02T08:32:17.166Z,44.43
2022-08-02T08:34:46.509Z,44.67
2022-08-02T08:37:16.907Z,44.52
2022-08-02T08:39:58.366Z,44.61
2022-08-02T08:42:30.700Z,44.57
2022-08-02T08:44:58.712Z,44.67
2022-08-02T08:47:42.358Z,44.33
2022-08-02T08:50:18.081Z,41.43
2022-08-02T08:52:56.079Z,40.55
2022-08-02T08:55:25.119Z,40.78
2022-08-02T08:57:54.856Z,40.49
2022-08-02T09:00:21.998Z,39.94
2022-08-02T09:02:50.105Z,40.30
2022-08-02T09:05:18.111Z,40.42
2022-08-02T09:07:50.038Z,40.66
2022-08-02T09:10:35.066Z,40.87
2022-08-02T09:13:39.272Z,41.05
2022-08-02T09:15:59.034Z,40.09
2022-08-02T09:18:33.005Z,40.59
2022-08-02T09:21:02.826Z,39.08
2022-08-02T09:23:47.145Z,39.15
2022-08-02T09:26:16.098Z,38.81
2022-08-02T09:28:46.602Z,39.13
2022-08-02T09:31:14.374Z,39.08
2022-08-02T09:33:43.346Z,39.20
2022-08-02T09:36:12.881Z,39.62
2022-08-02T09:38:41.500Z,39.90
2022-08-02T09:41:22.257Z,40.15
2022-08-02T09:43:51.919Z,39.69
2022-08-02T09:46:37.701Z,39.09
2022-08-02T09:49:19.848Z,39.36
2022-08-02T09:51:46.982Z,38.78
2022-08-02T09:54:40.846Z,39.28
2022-08-02T09:57:08.505Z,37.62
2022-08-02T09:59:35.545Z,38.38
2022-08-02T10:02:17.388Z,38.63
2022-08-02T10:04:53.303Z,38.21
2022-08-02T10:07:22.809Z,37.82
2022-08-02T10:09:51.662Z,37.44
2022-08-02T10:12:20.822Z,37.46
2022-08-02T10:14:50.864Z,37.07
2022-08-02T10:17:21.109Z,36.53
2022-08-02T10:20:02.847Z,36.72
2022-08-02T10:22:34.115Z,37.06
2022-08-02T10:25:03.863Z,36.61
2022-08-02T10:27:43.219Z,36.27
2022-08-02T10:30:16.130Z,35.21
2022-08-02T10:32:46.525Z,35.12
2022-08-02T10:35:20.190Z,35.22
2022-08-02T10:38:01.769Z,33.64
2022-08-02T10:40:47.581Z,32.17
2022-08-02T10:43:34.321Z,31.81
2022-08-02T10:46:23.898Z,28.48
2022-08-02T10:49:23.891Z,29.54
2022-08-02T10:52:02.125Z,29.82
2022-08-02T10:54:33.850Z,30.23
2022-08-02T10:57:01.738Z,29.38
2022-08-02T10:59:36.399Z,28.66
2022-08-02T11:02:06.329Z,27.97
2022-08-02T11:04:41.989Z,27.12
2022-08-02T11:07:19.158Z,26.29
2022-08-02T11:09:48.029Z,27.31
2022-08-02T11:12:17.215Z,26.31
2022-08-02T11:14:46.645Z,27.73
2022-08-02T11:17:18.050Z,27.85
2022-08-02T11:20:12.629Z,27.28
2022-08-02T11:22:40.844Z,26.07
2022-08-02T11:25:23.409Z,25.72
2022-08-02T11:27:51.872Z,25.26
2022-08-02T11:30:26.529Z,24.01
2022-08-02T11:33:01.084Z,24.18
2022-08-02T11:35:40.930Z,23.69
2022-08-02T11:38:21.322Z,23.97
2022-08-02T11:40:49.080Z,23.92
2022-08-02T11:43:18.037Z,24.03
2022-08-02T11:45:45.273Z,24.30
2022-08-02T11:48:12.257Z,25.33
2022-08-02T11:50:39.198Z,24.91
2022-08-02T11:53:18.461Z,24.68
2022-08-02T11:55:45.348Z,24.40
2022-08-02T11:58:12.165Z,23.79
2022-08-02T12:00:39.424Z,22.86
2022-08-02T12:03:07.626Z,23.19
2022-08-02T12:06:04.042Z,23.19
2022-08-02T12:08:25.406Z,23.38
2022-08-02T12:10:52.988Z,24.38
2022-08-02T12:13:19.856Z,24.11
2022-08-02T12:15:47.365Z,24.70
2022-08-02T12:18:35.338Z,24.76
2022-08-02T12:21:03.121Z,24.37
2022-08-02T12:23:30.765Z,24.81
2022-08-02T12:26:15.952Z,24.73
2022-08-02T12:28:44.189Z,24.93
2022-08-02T12:31:15.438Z,23.83
2022-08-02T12:33:54.847Z,23.37
2022-08-02T12:36:30.652Z,23.44
2022-08-02T12:39:00.314Z,23.58
2022-08-02T12:41:31.095Z,23.82
2022-08-02T12:44:01.185Z,24.28
2022-08-02T12:46:28.207Z,24.05
2022-08-02T12:49:18.068Z,23.90
2022-08-02T12:51:56.714Z,23.89
2022-08-02T12:54:32.757Z,24.39
2022-08-02T12:57:13.418Z,24.09
2022-08-02T12:59:42.362Z,25.14
2022-08-02T13:02:11.755Z,25.45
2022-08-02T13:04:39.201Z,25.49
2022-08-02T13:07:06.581Z,25.83
2022-08-02T13:09:42.245Z,26.88
2022-08-02T13:12:09.374Z,27.42
2022-08-02T13:14:41.784Z,27.78
2022-08-02T13:17:10.353Z,28.46
2022-08-02T13:19:38.563Z,28.17
2022-08-02T13:22:08.438Z,26.99
2022-08-02T13:24:40.150Z,26.14
2022-08-02T13:27:09.440Z,26.64
2022-08-02T13:29:39.278Z,26.83
2022-08-02T13:32:06.528Z,27.78
2022-08-02T13:34:33.568Z,27.94
2022-08-02T13:37:00.596Z,26.81
2022-08-02T13:39:27.475Z,26.72
2022-08-02T13:41:55.253Z,27.80
2022-08-02T13:44:22.666Z,28.38
2022-08-02T13:46:49.510Z,28.49
2022-08-02T13:49:19.883Z,28.73
2022-08-02T13:51:48.282Z,29.87
2022-08-02T13:54:16.072Z,29.91
2022-08-02T13:56:43.237Z,29.28
2022-08-02T13:59:54.924Z,29.53
2022-08-02T14:01:58.946Z,28.90
2022-08-02T14:04:26.785Z,28.53
2022-08-02T14:06:53.700Z,28.00
2022-08-02T14:09:21.191Z,27.44
2022-08-02T14:11:48.649Z,27.29
2022-08-02T14:14:17.367Z,27.00
2022-08-02T14:16:45.598Z,27.22
2022-08-02T14:19:16.737Z,26.46
2022-08-02T14:21:50.541Z,26.45
2022-08-02T14:24:19.193Z,26.97
2022-08-02T14:26:46.162Z,26.63
2022-08-02T14:29:13.991Z,27.15
2022-08-02T14:31:44.801Z,27.58
2022-08-02T14:34:13.467Z,26.90
2022-08-02T14:36:40.540Z,25.52
2022-08-02T14:39:07.821Z,25.33
2022-08-02T14:42:00.178Z,25.19
2022-08-02T14:44:23.725Z,25.40
2022-08-02T14:46:52.306Z,24.94
2022-08-02T14:49:25.597Z,24.99
2022-08-02T14:51:54.978Z,24.31
2022-08-02T14:54:30.110Z,24.77
2022-08-02T14:57:00.616Z,25.43
2022-08-02T14:59:28.691Z,26.38
2022-08-02T15:01:56.225Z,27.27
2022-08-02T15:04:23.070Z,27.58
2022-08-02T15:06:50.061Z,27.49
2022-08-02T15:09:16.988Z,27.48
2022-08-02T15:11:46.968Z,27.19
2022-08-02T15:14:20.407Z,26.88
2022-08-02T15:16:58.894Z,27.27
2022-08-02T15:19:58.999Z,27.61
2022-08-02T15:22:19.122Z,27.15
2022-08-02T15:24:47.410Z,28.44
2022-08-02T15:27:15.289Z,29.36
2022-08-02T15:29:46.379Z,30.41
2022-08-02T15:32:14.743Z,30.68
2022-08-02T15:34:41.778Z,31.14
2022-08-02T15:37:08.819Z,31.56
2022-08-02T15:39:36.081Z,32.08
2022-08-02T15:42:03.233Z,32.48
2022-08-02T15:44:30.202Z,32.41
2022-08-02T15:46:57.155Z,32.45
2022-08-02T15:49:25.110Z,33.02
2022-08-02T15:51:53.082Z,32.67
2022-08-02T15:54:20.190Z,32.42
2022-08-02T15:56:47.203Z,32.76
2022-08-02T15:59:14.159Z,32.61
2022-08-02T16:01:44.980Z,32.63
2022-08-02T16:04:13.738Z,32.62
2022-08-02T16:06:40.573Z,33.02
2022-08-02T16:09:07.449Z,33.23
2022-08-02T16:11:34.492Z,33.87
2022-08-02T16:14:01.488Z,33.84
2022-08-02T16:16:30.918Z,34.15
2022-08-02T16:18:59.191Z,34.30
2022-08-02T16:21:26.591Z,34.59
2022-08-02T16:23:58.770Z,36.23
2022-08-02T16:26:31.447Z,35.50
2022-08-02T16:28:59.321Z,35.78
2022-08-02T16:31:26.395Z,36.80
2022-08-02T16:33:55.916Z,36.88
2022-08-02T16:36:25.853Z,37.63
2022-08-02T16:38:54.352Z,37.34
2022-08-02T16:41:22.083Z,38.74
2022-08-02T16:43:48.983Z,39.34
2022-08-02T16:46:15.991Z,37.76
2022-08-02T16:48:51.006Z,38.30
2022-08-02T16:51:19.169Z,38.94
2022-08-02T16:54:00.483Z,39.01
2022-08-02T16:56:31.091Z,38.64
2022-08-02T16:58:59.560Z,39.79
2022-08-02T17:02:02.984Z,40.01
2022-08-02T17:04:16.009Z,40.42
2022-08-02T17:10:04.072Z,40.43
2022-08-02T17:12:17.646Z,41.13
2022-08-02T17:14:55.394Z,41.42
2022-08-02T17:17:34.154Z,41.54
2022-08-02T17:20:01.974Z,41.86
2022-08-02T17:22:29.979Z,42.81
2022-08-02T17:24:59.280Z,43.32
2022-08-02T17:27:26.767Z,44.01
2022-08-02T17:29:53.768Z,44.55
2022-08-02T17:32:20.690Z,45.03
2022-08-02T17:34:56.401Z,45.29
2022-08-02T17:37:28.517Z,45.84
2022-08-02T17:39:57.281Z,46.54
2022-08-02T17:42:25.110Z,46.97
2022-08-02T17:45:00.856Z,47.07
2022-08-02T17:47:33.941Z,45.39
2022-08-02T17:50:10.657Z,47.36
2022-08-02T17:52:52.199Z,48.44
2022-08-02T17:55:20.650Z,48.78
2022-08-02T17:57:56.942Z,49.23
2022-08-02T18:00:36.246Z,49.76
2022-08-02T18:03:05.695Z,50.44
2022-08-02T18:05:41.564Z,51.54
2022-08-02T18:08:23.051Z,51.35
2022-08-02T18:19:16.757Z,53.47
2022-08-02T18:21:45.813Z,53.95
2022-08-02T18:24:13.084Z,55.11
2022-08-02T18:26:43.507Z,55.17
2022-08-02T18:29:12.259Z,55.63
2022-08-02T18:31:40.214Z,55.98
2022-08-02T18:34:23.909Z,56.49
2022-08-02T18:36:50.818Z,56.96
2022-08-02T18:39:17.646Z,57.65
2022-08-02T18:41:44.885Z,58.19
2022-08-02T18:44:15.837Z,58.15
2022-08-02T18:46:43.395Z,58.59
2022-08-02T18:49:14.753Z,59.46
2022-08-02T18:51:43.437Z,59.50
2022-08-02T18:54:10.671Z,60.19
2022-08-02T18:56:38.942Z,60.52
2022-08-02T18:59:07.563Z,61.19
2022-08-02T19:01:38.570Z,61.04
2022-08-02T19:04:13.564Z,62.18
2022-08-02T19:06:40.457Z,62.37
2022-08-02T19:09:13.342Z,63.27
2022-08-02T19:11:50.248Z,63.42
2022-08-02T19:14:27.709Z,63.71
2022-08-02T19:17:15.779Z,63.75
2022-08-02T19:19:44.179Z,63.71
2022-08-02T19:22:18.091Z,63.58
2022-08-02T19:24:50.371Z,63.91
2022-08-02T19:27:25.616Z,64.22
2022-08-02T19:30:07.455Z,64.89
2022-08-02T19:32:41.560Z,65.64
2022-08-02T19:35:29.143Z,65.62
2022-08-02T19:38:07.433Z,66.24
2022-08-02T19:40:34.416Z,66.52
2022-08-02T19:44:20.976Z,66.41
2022-08-02T19:45:51.108Z,67.11
2022-08-02T19:51:07.990Z,67.25
2022-08-02T19:53:48.069Z,67.81
2022-08-02T19:56:25.070Z,68.63
2022-08-02T19:58:54.193Z,68.10
2022-08-02T20:01:28.229Z,68.16
2022-08-02T20:04:13.182Z,67.89
2022-08-02T20:06:45.169Z,67.88
2022-08-02T20:09:16.235Z,67.74
2022-08-02T20:11:45.573Z,67.18
2022-08-02T20:14:13.288Z,67.76
2022-08-02T20:16:41.639Z,68.46
2022-08-02T20:19:08.908Z,67.81
2022-08-02T20:21:38.275Z,67.83
2022-08-02T20:24:10.899Z,67.87
2022-08-02T20:26:46.982Z,67.72
2022-08-02T20:29:14.223Z,67.71
2022-08-02T20:31:41.070Z,68.08
2022-08-02T20:34:07.895Z,68.07
2022-08-02T20:36:34.750Z,68.44
2022-08-02T20:39:01.809Z,68.72
2022-08-02T20:41:37.101Z,68.84
2022-08-02T20:47:05.619Z,69.59
2022-08-02T20:49:57.003Z,70.03
2022-08-02T20:52:24.530Z,70.15
2022-08-02T20:54:52.814Z,71.14
2022-08-02T20:57:49.135Z,71.40
2022-08-02T21:00:08.616Z,71.59
2022-08-02T21:02:35.706Z,71.74
2022-08-02T21:05:07.996Z,72.64
2022-08-02T21:07:47.732Z,72.76
2022-08-02T21:10:21.327Z,73.05
2022-08-02T21:12:51.840Z,73.98
2022-08-02T21:15:18.822Z,73.83
2022-08-02T21:17:50.522Z,74.19
2022-08-02T21:20:27.531Z,74.62
2022-08-02T21:22:56.954Z,74.79
2022-08-02T21:25:42.446Z,74.74
2022-08-02T21:28:17.473Z,74.81
2022-08-02T21:30:45.150Z,74.65
2022-08-02T21:33:22.408Z,75.58
2022-08-02T21:35:50.742Z,75.15
2022-08-02T21:38:35.528Z,75.16
2022-08-02T21:41:06.966Z,75.29
2022-08-02T21:43:39.170Z,75.32
2022-08-02T21:46:06.518Z,74.89
2022-08-02T21:48:35.658Z,74.93
2022-08-02T21:51:04.295Z,74.64
2022-08-02T21:53:42.517Z,75.12
2022-08-02T21:56:10.237Z,75.02
2022-08-02T21:58:37.219Z,75.48
2022-08-02T22:01:04.440Z,75.36
2022-08-02T22:03:32.550Z,75.41
2022-08-02T22:05:59.827Z,75.21
2022-08-02T22:08:26.733Z,75.17
2022-08-02T22:11:03.840Z,75.35
2022-08-02T22:13:38.777Z,75.79
2022-08-02T22:16:14.316Z,75.25
2022-08-02T22:18:41.383Z,75.75
2022-08-02T22:21:17.583Z,75.57
2022-08-02T22:23:50.311Z,76.21
2022-08-02T22:26:19.034Z,76.08
2022-08-02T22:28:52.071Z,76.93
2022-08-02T22:31:40.998Z,77.00
2022-08-02T22:34:26.486Z,76.91
2022-08-02T22:36:54.365Z,77.45
2022-08-02T22:39:21.225Z,77.70
2022-08-02T22:42:05.365Z,77.96
2022-08-02T22:44:35.823Z,77.78
2022-08-02T22:47:07.112Z,78.07
2022-08-02T22:49:45.444Z,77.77
2022-08-02T22:52:20.070Z,77.45
2022-08-02T22:54:47.853Z,77.71
2022-08-02T22:57:14.696Z,76.36
2022-08-02T22:58:36.734Z,39.71
2022-08-02T22:59:07.049Z,67.35
2022-08-02T22:59:08.351Z,68.81
2022-08-02T22:59:41.808Z,76.02
2022-08-02T23:02:10.026Z,76.97
2022-08-02T23:04:37.745Z,76.91
2022-08-02T23:07:04.801Z,76.36
2022-08-02T23:09:31.657Z,76.38
2022-08-02T23:11:58.503Z,75.87
2022-08-02T23:14:25.353Z,76.89
2022-08-02T23:17:10.581Z,77.99
2022-08-02T23:19:52.475Z,77.89
2022-08-02T23:22:29.242Z,78.13
2022-08-02T23:25:00.536Z,77.65
2022-08-02T23:27:27.997Z,78.10
2022-08-02T23:29:54.907Z,78.20
2022-08-02T23:32:22.958Z,77.81
2022-08-02T23:34:56.269Z,78.31
2022-08-02T23:37:23.491Z,77.94
2022-08-02T23:39:50.829Z,77.85
2022-08-02T23:42:17.821Z,78.37
2022-08-02T23:44:44.862Z,78.09
2022-08-02T23:47:11.721Z,78.75
2022-08-02T23:49:38.640Z,78.55
2022-08-02T23:52:05.547Z,78.17
2022-08-02T23:54:32.365Z,78.44
2022-08-02T23:56:59.412Z,78.53
2022-08-02T23:59:26.385Z,78.17
